createdAt,value
2019-04-12T00:25:37.465Z,1.89
2019-04-12T00:28:07.418Z,2.07
2019-04-12T00:30:37.943Z,2.23
2019-04-12T00:33:07.835Z,1.98
2019-04-12T00:35:37.834Z,1.94
2019-04-12T00:38:07.702Z,1.91
2019-04-12T00:40:37.619Z,1.95
2019-04-12T00:43:07.504Z,1.77
2019-04-12T00:45:37.424Z,1.90
2019-04-12T00:48:10.183Z,1.86
2019-04-12T00:50:41.598Z,1.68
2019-04-12T00:53:11.010Z,1.98
2019-04-12T00:55:42.409Z,1.66
2019-04-12T00:58:15.986Z,1.54
2019-04-12T01:01:02.388Z,1.68
2019-04-12T01:03:32.913Z,1.82
2019-04-12T01:06:02.893Z,1.99
2019-04-12T01:08:32.931Z,1.71
2019-04-12T01:11:07.238Z,1.55
2019-04-12T01:13:39.680Z,1.29
2019-04-12T01:16:09.446Z,1.11
2019-04-12T01:18:39.313Z,1.20
2019-04-12T01:21:11.044Z,1.11
2019-04-12T01:23:42.035Z,0.95
2019-04-12T01:26:13.116Z,0.86
2019-04-12T01:28:48.052Z,0.78
2019-04-12T01:31:15.478Z,0.69
2019-04-12T01:33:45.378Z,0.79
2019-04-12T01:36:15.267Z,0.59
2019-04-12T01:38:45.533Z,0.54
2019-04-12T01:41:15.422Z,0.44
2019-04-12T01:43:45.286Z,0.59
2019-04-12T01:46:15.196Z,0.87
2019-04-12T01:48:45.095Z,0.97
2019-04-12T01:51:15.013Z,0.72
2019-04-12T01:53:44.904Z,0.64
2019-04-12T01:56:14.883Z,0.58
2019-04-12T01:58:44.788Z,0.50
2019-04-12T02:01:14.694Z,0.72
2019-04-12T02:03:44.582Z,0.51
2019-04-12T02:06:14.567Z,0.38
2019-04-12T02:08:44.487Z,0.84
2019-04-12T02:11:14.455Z,0.77
2019-04-12T02:13:44.454Z,0.64
2019-04-12T02:16:15.372Z,0.76
2019-04-12T02:18:45.335Z,0.70
2019-04-12T02:21:27.608Z,0.71
2019-04-12T02:23:57.566Z,0.63
2019-04-12T02:26:27.632Z,0.54
2019-04-12T02:28:57.859Z,0.53
2019-04-12T02:31:50.843Z,0.43
2019-04-12T02:34:21.367Z,0.51
2019-04-12T02:36:51.473Z,0.37
2019-04-12T02:39:21.463Z,0.52
2019-04-12T02:41:51.912Z,0.37
2019-04-12T02:44:22.379Z,0.35
2019-04-12T02:47:06.815Z,0.19
2019-04-12T02:49:51.604Z,0.25
2019-04-12T02:52:34.808Z,0.26
2019-04-12T02:55:36.415Z,0.55
2019-04-12T02:58:00.487Z,0.47
2019-04-12T03:00:40.349Z,0.17
2019-04-12T03:03:10.777Z,-0.03
2019-04-12T03:05:40.746Z,-0.14
2019-04-12T03:08:11.130Z,-0.15
2019-04-12T03:10:41.545Z,-0.16
2019-04-12T03:13:12.052Z,-0.21
2019-04-12T03:15:42.489Z,-0.19
2019-04-12T03:18:13.227Z,-0.13
2019-04-12T03:20:43.388Z,-0.29
2019-04-12T03:23:13.459Z,-0.33
2019-04-12T03:25:53.107Z,-0.27
2019-04-12T03:28:16.365Z,-0.19
2019-04-12T03:30:46.631Z,-0.25
2019-04-12T03:33:16.630Z,-0.28
2019-04-12T03:35:46.632Z,-0.33
2019-04-12T03:38:16.829Z,-0.43
2019-04-12T03:40:47.327Z,-0.47
2019-04-12T03:43:17.657Z,-0.35
2019-04-12T03:45:47.731Z,-0.18
2019-04-12T03:48:17.722Z,-0.16
2019-04-12T03:50:47.761Z,-0.17
2019-04-12T03:53:17.880Z,-0.15
2019-04-12T03:55:48.237Z,-0.08
2019-04-12T03:58:18.329Z,-0.10
2019-04-12T04:00:48.589Z,-0.10
2019-04-12T04:03:18.702Z,0.01
2019-04-12T04:05:48.858Z,0.03
2019-04-12T04:08:18.930Z,0.03
2019-04-12T04:10:49.009Z,0.11
2019-04-12T04:13:19.480Z,0.16
2019-04-12T04:15:51.204Z,0.24
2019-04-12T04:18:24.119Z,0.44
2019-04-12T04:21:13.000Z,0.56
2019-04-12T04:23:55.134Z,0.64
2019-04-12T04:26:53.296Z,0.65
2019-04-12T04:29:45.323Z,0.65
2019-04-12T04:32:28.375Z,0.78
2019-04-12T04:34:58.441Z,0.93
2019-04-12T04:37:28.801Z,0.91
2019-04-12T04:39:58.979Z,0.95
2019-04-12T04:42:29.055Z,0.97
2019-04-12T04:44:59.343Z,1.07
2019-04-12T04:47:29.424Z,1.01
2019-04-12T04:49:59.520Z,1.06
2019-04-12T04:52:29.667Z,1.12
2019-04-12T04:55:00.158Z,1.15
2019-04-12T04:57:30.203Z,1.20
2019-04-12T05:00:00.782Z,1.29
2019-04-12T05:02:30.877Z,1.34
2019-04-12T05:05:01.020Z,1.33
2019-04-12T05:07:31.313Z,1.34
2019-04-12T05:10:01.583Z,1.44
2019-04-12T05:12:41.417Z,1.42
2019-04-12T05:15:11.450Z,1.62
2019-04-12T05:17:41.550Z,1.72
2019-04-12T05:20:11.618Z,1.83
2019-04-12T05:22:43.753Z,1.91
2019-04-12T05:25:14.065Z,1.98
2019-04-12T05:27:44.666Z,2.02
2019-04-12T05:30:14.819Z,1.95
2019-04-12T05:32:47.495Z,2.16
2019-04-12T05:35:20.179Z,2.19
2019-04-12T05:37:50.855Z,2.13
2019-04-12T05:40:20.899Z,2.19
2019-04-12T05:42:50.991Z,2.36
2019-04-12T05:45:25.166Z,2.24
2019-04-12T05:48:19.958Z,2.35
2019-04-12T05:50:50.112Z,2.47
2019-04-12T05:53:20.215Z,2.36
2019-04-12T05:55:53.086Z,2.44
2019-04-12T05:58:37.900Z,2.65
2019-04-12T06:01:27.006Z,2.87
2019-04-12T06:03:58.389Z,2.80
2019-04-12T06:06:32.152Z,2.87
2019-04-12T06:12:51.425Z,3.14
2019-04-12T06:15:21.495Z,3.43
2019-04-12T06:17:52.257Z,3.48
2019-04-12T06:24:13.954Z,3.66
2019-04-12T06:27:10.107Z,3.56
2019-04-12T06:29:37.328Z,3.79
2019-04-12T06:32:07.403Z,3.92
2019-04-12T06:34:38.024Z,4.25
2019-04-12T06:37:08.221Z,4.16
2019-04-12T06:39:38.297Z,3.90
2019-04-12T06:42:08.838Z,4.02
2019-04-12T06:44:38.977Z,4.01
2019-04-12T06:47:09.079Z,4.38
2019-04-12T06:49:39.744Z,4.76
2019-04-12T06:52:09.721Z,4.98
2019-04-12T06:54:39.684Z,4.97
2019-04-12T06:57:28.602Z,5.12
2019-04-12T07:00:24.182Z,5.48
2019-04-12T07:02:59.401Z,5.06
2019-04-12T07:05:29.355Z,5.30
2019-04-12T07:07:59.333Z,5.32
2019-04-12T07:10:29.863Z,5.41
2019-04-12T07:12:59.782Z,5.54
2019-04-12T07:15:29.682Z,5.82
2019-04-12T07:18:00.019Z,6.02
2019-04-12T07:20:30.028Z,5.99
2019-04-12T07:23:00.463Z,5.62
2019-04-12T07:25:30.833Z,5.81
2019-04-12T07:28:00.981Z,6.04
2019-04-12T07:30:30.976Z,6.49
2019-04-12T07:36:51.935Z,7.89
2019-04-12T07:39:21.851Z,8.77
2019-04-12T07:41:52.411Z,9.37
2019-04-12T07:48:14.201Z,11.66
2019-04-12T07:50:50.445Z,11.32
2019-04-12T07:53:21.184Z,11.26
2019-04-12T07:56:10.047Z,11.46
2019-04-12T07:59:03.222Z,10.60
2019-04-12T08:01:47.311Z,11.09
2019-04-12T08:04:34.499Z,10.78
2019-04-12T08:07:12.694Z,10.84
2019-04-12T08:09:42.830Z,11.92
2019-04-12T08:12:12.776Z,11.99
2019-04-12T08:14:42.669Z,11.14
2019-04-12T08:17:12.687Z,10.90
2019-04-12T08:19:42.726Z,11.21
2019-04-12T08:36:34.839Z,11.22
2019-04-12T08:39:07.199Z,11.19
2019-04-12T08:41:37.114Z,11.83
2019-04-12T08:44:07.219Z,11.25
2019-04-12T08:46:37.212Z,11.27
2019-04-12T08:49:07.503Z,12.11
2019-04-12T08:51:37.475Z,12.92
2019-04-12T08:54:07.481Z,14.66
2019-04-12T08:56:37.711Z,13.32
2019-04-12T08:59:07.680Z,12.84
2019-04-12T09:01:37.629Z,13.58
2019-04-12T09:04:07.782Z,14.10
2019-04-12T09:06:38.023Z,14.00
2019-04-12T09:09:15.022Z,15.87
2019-04-12T09:11:45.406Z,16.54
2019-04-12T09:14:15.518Z,13.62
2019-04-12T09:16:45.474Z,12.93
2019-04-12T09:30:59.200Z,11.19
2019-04-12T09:41:07.293Z,12.26
2019-04-12T09:43:37.242Z,11.97
2019-04-12T09:46:07.350Z,15.12
2019-04-12T09:52:29.297Z,13.33
2019-04-12T09:54:59.243Z,16.67
2019-04-12T09:57:29.193Z,18.01
2019-04-12T09:59:59.164Z,17.81
2019-04-12T10:02:29.161Z,19.08
2019-04-12T10:04:59.112Z,19.96
2019-04-12T10:07:29.109Z,19.10
2019-04-12T10:09:59.306Z,17.76
2019-04-12T10:16:01.652Z,20.81
2019-04-12T10:18:31.641Z,19.01
2019-04-12T11:13:12.082Z,20.11
2019-04-12T11:22:55.122Z,18.97
2019-04-12T11:25:29.440Z,16.35
2019-04-12T11:27:57.083Z,15.56
2019-04-12T11:30:27.121Z,18.07
2019-04-12T11:32:57.103Z,17.76
2019-04-12T11:35:27.173Z,18.87
2019-04-12T11:37:57.209Z,21.31
2019-04-12T11:40:27.232Z,20.64
2019-04-12T11:42:57.154Z,18.93
2019-04-12T11:45:27.191Z,17.61
2019-04-12T11:47:57.100Z,18.37
2019-04-12T11:50:27.231Z,16.60
2019-04-12T11:52:57.124Z,13.45
2019-04-12T11:55:27.164Z,13.00
2019-04-12T11:57:57.191Z,12.32
2019-04-12T12:00:39.167Z,12.64
2019-04-12T12:03:28.563Z,12.56
2019-04-12T12:06:07.476Z,12.27
2019-04-12T12:12:47.978Z,12.20
2019-04-12T12:43:01.033Z,11.82
2019-04-12T12:45:30.999Z,12.19
2019-04-12T12:48:00.966Z,11.69
2019-04-12T12:50:30.923Z,11.25
2019-04-12T12:53:00.857Z,11.36
2019-04-12T12:55:31.131Z,11.87
2019-04-12T12:58:01.084Z,11.99
2019-04-12T13:04:05.899Z,11.19
2019-04-12T13:13:18.756Z,12.08
2019-04-12T13:22:43.684Z,13.17
2019-04-12T13:25:13.832Z,13.31
2019-04-12T13:27:43.817Z,13.43
2019-04-12T13:30:31.925Z,12.83
2019-04-12T13:33:10.152Z,13.52
2019-04-12T13:35:49.607Z,13.42
2019-04-12T13:38:33.972Z,12.88
2019-04-12T13:41:04.424Z,13.09
2019-04-12T13:43:34.390Z,12.81
2019-04-12T13:46:04.482Z,12.43
2019-04-12T13:48:34.405Z,12.43
2019-04-12T13:51:04.474Z,12.03
2019-04-12T13:53:47.160Z,11.58
2019-04-12T13:56:07.088Z,11.20
2019-04-12T13:58:37.158Z,11.09
2019-04-12T14:01:07.249Z,11.29
2019-04-12T14:03:37.178Z,11.41
2019-04-12T14:06:07.386Z,11.28
2019-04-12T14:08:38.241Z,11.07
2019-04-12T14:11:08.243Z,10.74
2019-04-12T14:13:38.254Z,10.76
2019-04-12T14:16:08.450Z,10.76
2019-04-12T14:18:38.508Z,10.62
2019-04-12T14:21:08.606Z,10.47
2019-04-12T14:23:38.763Z,10.46
2019-04-12T14:26:08.772Z,10.21
2019-04-12T14:28:38.814Z,10.23
2019-04-12T14:31:14.251Z,10.47
2019-04-12T14:33:52.954Z,10.68
2019-04-12T14:36:35.246Z,10.18
2019-04-12T14:39:09.252Z,10.28
2019-04-12T14:41:39.278Z,10.43
2019-04-12T14:44:28.290Z,10.13
2019-04-12T14:47:02.151Z,10.13
2019-04-12T14:49:32.141Z,9.95
2019-04-12T14:52:02.249Z,9.85
2019-04-12T14:54:32.181Z,10.21
2019-04-12T14:57:02.964Z,10.28
2019-04-12T14:59:32.871Z,10.23
2019-04-12T15:02:03.631Z,10.10
2019-04-12T15:04:33.767Z,9.62
2019-04-12T15:07:03.770Z,9.70
2019-04-12T15:09:33.758Z,9.59
2019-04-12T15:12:03.807Z,9.55
2019-04-12T15:14:33.879Z,9.31
2019-04-12T15:17:04.303Z,9.44
2019-04-12T15:19:34.283Z,9.45
2019-04-12T15:22:04.626Z,9.30
2019-04-12T15:24:34.512Z,9.29
2019-04-12T15:27:04.624Z,9.40
2019-04-12T15:29:34.541Z,9.30
2019-04-12T15:32:05.418Z,9.26
2019-04-12T15:34:35.888Z,8.99
2019-04-12T15:37:05.951Z,9.11
2019-04-12T15:39:35.828Z,9.31
2019-04-12T15:42:05.835Z,9.26
2019-04-12T15:44:36.362Z,9.31
2019-04-12T15:47:07.243Z,9.52
2019-04-12T15:49:37.985Z,9.48
2019-04-12T15:55:58.648Z,9.54
2019-04-12T15:58:28.598Z,9.33
2019-04-12T16:01:11.915Z,9.25
2019-04-12T16:03:39.717Z,9.21
2019-04-12T16:06:11.523Z,9.25
2019-04-12T16:13:03.148Z,8.91
2019-04-12T16:16:26.589Z,8.94
2019-04-12T16:18:56.582Z,8.75
2019-04-12T16:21:26.578Z,8.83
2019-04-12T16:23:56.637Z,8.78
2019-04-12T16:30:43.079Z,8.72
2019-04-12T16:38:54.273Z,8.54
2019-04-12T16:41:24.404Z,8.62
2019-04-12T16:43:54.312Z,8.55
2019-04-12T16:46:33.840Z,8.60
2019-04-12T16:48:56.179Z,8.32
2019-04-12T16:51:26.128Z,8.46
2019-04-12T16:53:57.223Z,8.37
2019-04-12T16:56:27.141Z,8.41
2019-04-12T16:58:57.261Z,8.50
2019-04-12T17:01:36.691Z,8.52
2019-04-12T17:03:59.610Z,8.31
2019-04-12T17:06:29.765Z,8.23
2019-04-12T17:08:59.913Z,8.08
2019-04-12T17:11:29.929Z,8.01
2019-04-12T17:14:00.635Z,7.88
2019-04-12T17:16:30.616Z,7.94
2019-04-12T17:19:00.571Z,7.89
2019-04-12T17:25:22.016Z,7.75
2019-04-12T17:40:11.721Z,7.56
2019-04-12T17:42:41.803Z,7.55
2019-04-12T17:45:12.746Z,7.51
2019-04-12T17:47:42.759Z,7.41
2019-04-12T17:50:22.155Z,7.44
2019-04-12T17:53:09.738Z,7.44
2019-04-12T17:55:43.376Z,7.37
2019-04-12T17:58:13.359Z,7.22
2019-04-12T18:00:49.731Z,7.12
2019-04-12T18:03:19.811Z,7.20
2019-04-12T18:05:49.778Z,7.15
2019-04-12T18:08:19.661Z,7.04
2019-04-12T18:10:50.111Z,6.95
2019-04-12T18:13:20.212Z,6.86
2019-04-12T18:15:50.223Z,6.73
2019-04-12T18:18:20.889Z,6.76
2019-04-12T18:20:50.829Z,6.70
2019-04-12T18:23:21.063Z,6.65
2019-04-12T18:25:50.953Z,6.55
2019-04-12T18:28:21.367Z,6.56
2019-04-12T18:46:58.513Z,6.43
2019-04-12T18:49:28.499Z,6.34
2019-04-12T18:51:58.484Z,6.31
2019-04-12T18:54:28.630Z,6.36
2019-04-12T18:56:58.581Z,6.29
2019-04-12T18:59:28.490Z,6.20
2019-04-12T19:01:59.195Z,6.19
2019-04-12T19:04:29.171Z,6.22
2019-04-12T19:06:59.232Z,6.18
2019-04-12T19:09:29.711Z,6.25
2019-04-12T19:11:59.872Z,6.26
2019-04-12T19:14:29.739Z,6.24
2019-04-12T19:17:00.112Z,6.15
2019-04-12T19:19:30.053Z,6.24
2019-04-12T19:22:00.005Z,6.19
2019-04-12T19:28:15.170Z,6.16
2019-04-12T19:47:39.634Z,5.92
2019-04-12T19:50:09.905Z,5.93
2019-04-12T19:52:39.960Z,5.89
2019-04-12T19:58:54.825Z,5.85
2019-04-12T20:01:24.777Z,5.79
2019-04-12T20:03:54.739Z,5.69
2019-04-12T20:06:24.685Z,5.71
2019-04-12T20:08:54.610Z,5.65
2019-04-12T20:11:24.516Z,5.60
2019-04-12T20:13:54.898Z,5.49
2019-04-12T20:20:15.669Z,5.00
2019-04-12T20:22:45.665Z,4.79
2019-04-12T20:25:16.354Z,4.72
2019-04-12T20:31:38.003Z,4.79
2019-04-12T20:34:07.963Z,4.66
2019-04-12T20:36:38.576Z,4.84
2019-04-12T20:42:58.918Z,4.97
2019-04-12T20:45:29.517Z,5.07
2019-04-12T20:47:59.449Z,5.17
2019-04-12T20:50:29.524Z,5.07
2019-04-12T20:56:50.100Z,5.02
2019-04-12T20:59:20.022Z,5.01
2019-04-12T21:01:49.923Z,4.99
2019-04-12T21:21:31.411Z,4.32
2019-04-12T22:12:54.099Z,3.36
2019-04-12T22:15:23.992Z,3.51
2019-04-12T22:17:53.964Z,3.42
2019-04-12T22:20:23.844Z,3.44
2019-04-12T22:49:05.081Z,3.44
2019-04-12T22:51:34.969Z,3.36
2019-04-12T22:54:04.975Z,3.50
2019-04-12T22:56:34.868Z,3.48
2019-04-12T22:59:04.803Z,3.47
2019-04-12T23:38:47.343Z,3.40
2019-04-12T23:41:17.242Z,3.43
2019-04-12T23:47:38.846Z,3.23
2019-04-12T23:50:09.466Z,3.23
2019-04-12T23:56:30.955Z,3.29
2019-04-12T23:59:01.658Z,3.21
